createdAt,value
2023-04-02T00:00:10.447Z,101030.44
2023-04-02T00:02:56.605Z,101033.38
2023-04-02T00:05:30.529Z,101046.28
2023-04-02T00:08:03.283Z,101043.09
2023-04-02T00:10:33.473Z,101053.63
2023-04-02T00:13:19.823Z,101044.06
2023-04-02T00:15:49.535Z,101054.97
2023-04-02T00:18:21.593Z,101055.41
2023-04-02T00:20:56.342Z,101067.50
2023-04-02T00:23:23.055Z,101067.16
2023-04-02T00:25:49.532Z,101074.06
2023-04-02T00:28:19.625Z,101085.75
2023-04-02T00:30:58.848Z,101083.34
2023-04-02T00:33:31.552Z,101084.69
2023-04-02T00:35:58.048Z,101083.09
2023-04-02T00:38:31.745Z,101087.88
2023-04-02T00:41:07.209Z,101083.88
2023-04-02T00:43:38.370Z,101093.19
2023-04-02T00:46:14.617Z,101104.97
2023-04-02T00:49:02.879Z,101095.28
2023-04-02T00:51:36.813Z,101112.63
2023-04-02T00:54:06.822Z,101107.41
2023-04-02T00:56:45.456Z,101107.50
2023-04-02T00:59:33.537Z,101108.81
2023-04-02T01:02:22.715Z,101119.34
2023-04-02T01:05:00.722Z,101123.31
2023-04-02T01:07:41.274Z,101137.22
2023-04-02T01:10:33.067Z,101140.84
2023-04-02T01:13:27.057Z,101140.03
2023-04-02T01:16:09.830Z,101141.34
2023-04-02T01:19:20.184Z,101142.97
2023-04-02T01:22:08.064Z,101149.06
2023-04-02T01:24:37.249Z,101141.00
2023-04-02T01:27:20.653Z,101157.19
2023-04-02T01:29:52.456Z,101162.06
2023-04-02T01:32:21.985Z,101168.97
2023-04-02T01:34:50.621Z,101167.78
2023-04-02T01:37:44.855Z,101168.66
2023-04-02T01:40:20.752Z,101179.56
2023-04-02T01:42:58.382Z,101178.03
2023-04-02T01:45:25.502Z,101186.44
2023-04-02T01:47:52.695Z,101188.13
2023-04-02T01:50:19.061Z,101193.78
2023-04-02T01:52:49.638Z,101185.81
2023-04-02T01:55:34.091Z,101196.75
2023-04-02T01:58:03.750Z,101201.25
2023-04-02T02:00:32.419Z,101208.16
2023-04-02T02:03:00.973Z,101214.16
2023-04-02T02:05:28.764Z,101216.19
2023-04-02T02:07:58.247Z,101219.03
2023-04-02T02:10:29.534Z,101228.38
2023-04-02T02:13:00.165Z,101225.56
2023-04-02T02:15:27.632Z,101225.63
2023-04-02T02:17:59.310Z,101234.91
2023-04-02T02:20:27.938Z,101236.16
2023-04-02T02:22:54.705Z,101229.75
2023-04-02T02:25:24.933Z,101243.47
2023-04-02T02:28:00.388Z,101245.53
2023-04-02T02:30:34.477Z,101249.22
2023-04-02T02:33:07.613Z,101250.00
2023-04-02T02:35:50.817Z,101257.31
2023-04-02T02:38:30.843Z,101254.47
2023-04-02T02:41:36.282Z,101265.88
2023-04-02T02:44:14.268Z,101275.97
2023-04-02T02:46:47.860Z,101278.00
2023-04-02T02:49:22.451Z,101279.22
2023-04-02T02:52:13.814Z,101293.03
2023-04-02T02:54:51.754Z,101293.81
2023-04-02T02:57:25.148Z,101304.34
2023-04-02T02:59:54.705Z,101302.72
2023-04-02T03:02:21.725Z,101302.78
2023-04-02T03:04:52.990Z,101293.50
2023-04-02T03:07:25.458Z,101301.97
2023-04-02T03:10:12.318Z,101314.91
2023-04-02T03:12:50.086Z,101316.13
2023-04-02T03:15:31.507Z,101318.16
2023-04-02T03:18:12.064Z,101323.88
2023-04-02T03:20:46.750Z,101326.72
2023-04-02T03:23:19.314Z,101334.00
2023-04-02T03:25:57.300Z,101332.09
2023-04-02T03:28:30.699Z,101348.97
2023-04-02T03:31:08.424Z,101352.22
2023-04-02T03:33:40.040Z,101362.00
2023-04-02T03:36:28.518Z,101358.78
2023-04-02T03:39:20.612Z,101368.03
2023-04-02T03:42:00.611Z,101382.16
2023-04-02T03:44:37.361Z,101383.03
2023-04-02T03:47:14.287Z,101383.50
2023-04-02T03:49:47.870Z,101401.59
2023-04-02T03:52:22.362Z,101394.75
2023-04-02T03:54:54.010Z,101400.03
2023-04-02T03:57:38.404Z,101406.50
2023-04-02T04:00:17.221Z,101415.34
2023-04-02T04:02:57.389Z,101422.25
2023-04-02T04:05:35.916Z,101420.69
2023-04-02T04:08:08.259Z,101422.34
2023-04-02T04:10:35.503Z,101425.97
2023-04-02T04:13:31.460Z,101435.69
2023-04-02T04:16:06.778Z,101446.22
2023-04-02T04:18:49.044Z,101452.59
2023-04-02T04:21:30.128Z,101459.91
2023-04-02T04:24:16.623Z,101459.91
2023-04-02T04:27:04.507Z,101454.69
2023-04-02T04:30:05.700Z,101472.03
2023-04-02T04:32:39.060Z,101476.06
2023-04-02T04:35:23.729Z,101484.94
2023-04-02T04:37:58.935Z,101489.00
2023-04-02T04:40:30.503Z,101486.59
2023-04-02T04:43:03.572Z,101492.66
2023-04-02T04:45:47.202Z,101497.94
2023-04-02T04:48:26.503Z,101499.09
2023-04-02T04:51:00.671Z,101512.41
2023-04-02T04:53:29.441Z,101511.19
2023-04-02T04:56:16.005Z,101511.63
2023-04-02T04:59:00.849Z,101524.53
2023-04-02T05:02:01.613Z,101529.78
2023-04-02T05:04:39.076Z,101533.47
2023-04-02T05:07:14.096Z,101536.63
2023-04-02T05:09:57.823Z,101532.63
2023-04-02T05:12:39.687Z,101541.50
2023-04-02T05:15:18.040Z,101544.34
2023-04-02T05:17:56.656Z,101547.19
2023-04-02T05:20:32.393Z,101542.34
2023-04-02T05:23:11.329Z,101557.66
2023-04-02T05:25:50.285Z,101561.31
2023-04-02T05:28:29.974Z,101556.84
2023-04-02T05:31:04.172Z,101569.78
2023-04-02T05:33:37.526Z,101568.16
2023-04-02T05:36:12.696Z,101577.84
2023-04-02T05:38:46.707Z,101578.63
2023-04-02T05:41:28.293Z,101585.09
2023-04-02T05:44:03.694Z,101584.72
2023-04-02T05:46:36.932Z,101585.91
2023-04-02T05:49:09.649Z,101587.50
2023-04-02T05:51:48.460Z,101595.56
2023-04-02T05:54:26.091Z,101599.19
2023-04-02T05:57:02.921Z,101601.63
2023-04-02T05:59:37.739Z,101606.06
2023-04-02T06:02:31.474Z,101598.81
2023-04-02T06:05:11.288Z,101610.88
2023-04-02T06:07:46.869Z,101618.13
2023-04-02T06:10:24.794Z,101616.53
2023-04-02T06:12:54.374Z,101622.94
2023-04-02T06:15:23.780Z,101628.59
2023-04-02T06:18:08.555Z,101635.09
2023-04-02T06:20:35.975Z,101634.66
2023-04-02T06:23:09.583Z,101647.97
2023-04-02T06:25:42.398Z,101639.06
2023-04-02T06:28:17.221Z,101647.94
2023-04-02T06:30:54.589Z,101672.97
2023-04-02T06:33:21.400Z,101658.41
2023-04-02T06:35:51.879Z,101674.94
2023-04-02T06:38:31.269Z,101672.53
2023-04-02T06:41:01.317Z,101664.84
2023-04-02T06:43:57.528Z,101679.34
2023-04-02T06:46:43.480Z,101680.59
2023-04-02T06:49:21.203Z,101686.56
2023-04-02T06:51:53.787Z,101698.69
2023-04-02T06:54:20.985Z,101695.84
2023-04-02T06:56:54.366Z,101710.41
2023-04-02T06:59:26.775Z,101710.78
2023-04-02T07:01:57.788Z,101710.41
2023-04-02T07:04:25.689Z,101718.00
2023-04-02T07:06:53.761Z,101721.63
2023-04-02T07:09:22.808Z,101726.06
2023-04-02T07:11:53.796Z,101730.91
2023-04-02T07:14:20.537Z,101734.88
2023-04-02T07:16:47.076Z,101745.00
2023-04-02T07:19:21.792Z,101732.88
2023-04-02T07:21:52.118Z,101730.00
2023-04-02T07:24:20.484Z,101731.63
2023-04-02T07:26:48.274Z,101746.94
2023-04-02T07:29:16.785Z,101751.34
2023-04-02T07:31:43.608Z,101739.22
2023-04-02T07:34:10.244Z,101752.53
2023-04-02T07:36:36.819Z,101753.69
2023-04-02T07:39:04.271Z,101765.84
2023-04-02T07:41:30.917Z,101761.75
2023-04-02T07:43:57.535Z,101760.59
2023-04-02T07:46:24.521Z,101765.78
2023-04-02T07:48:51.145Z,101773.09
2023-04-02T07:51:26.018Z,101784.00
2023-04-02T07:53:55.927Z,101794.91
2023-04-02T07:56:24.557Z,101784.75
2023-04-02T07:58:51.409Z,101805.81
2023-04-02T08:01:26.267Z,101810.63
2023-04-02T08:03:54.824Z,101824.34
2023-04-02T08:06:22.558Z,101818.69
2023-04-02T08:08:49.267Z,101813.81
2023-04-02T08:11:16.367Z,101815.88
2023-04-02T08:13:43.139Z,101812.25
2023-04-02T08:16:10.551Z,101821.09
2023-04-02T08:18:37.500Z,101826.34
2023-04-02T08:21:09.797Z,101832.38
2023-04-02T08:23:37.955Z,101827.50
2023-04-02T08:26:05.816Z,101832.75
2023-04-02T08:28:32.297Z,101840.47
2023-04-02T08:30:58.814Z,101843.25
2023-04-02T08:33:26.025Z,101847.69
2023-04-02T08:35:52.459Z,101848.47
2023-04-02T08:38:21.832Z,101844.38
2023-04-02T08:40:54.429Z,101853.69
2023-04-02T08:43:40.798Z,101858.94
2023-04-02T08:46:17.593Z,101863.38
2023-04-02T08:48:50.809Z,101863.75
2023-04-02T08:51:26.607Z,101864.16
2023-04-02T08:54:02.276Z,101856.50
2023-04-02T08:56:49.312Z,101864.56
2023-04-02T08:59:30.351Z,101868.56
2023-04-02T09:02:05.695Z,101883.13
2023-04-02T09:04:33.843Z,101887.13
2023-04-02T09:07:00.901Z,101891.97
2023-04-02T09:09:27.744Z,101896.84
2023-04-02T09:12:02.816Z,101893.97
2023-04-02T09:14:46.021Z,101914.56
2023-04-02T09:17:23.751Z,101903.19
2023-04-02T09:20:01.532Z,101908.81
2023-04-02T09:22:31.616Z,101916.84
2023-04-02T09:25:00.905Z,101909.59
2023-04-02T09:27:33.995Z,101922.88
2023-04-02T09:30:15.029Z,101921.25
2023-04-02T09:32:51.148Z,101923.63
2023-04-02T09:35:26.637Z,101929.66
2023-04-02T09:38:09.915Z,101932.88
2023-04-02T09:41:28.606Z,101941.38
2023-04-02T09:44:13.162Z,101938.50
2023-04-02T09:46:53.214Z,101946.16
2023-04-02T09:49:23.563Z,101945.69
2023-04-02T09:52:19.094Z,101958.25
2023-04-02T09:54:47.608Z,101967.94
2023-04-02T09:57:25.079Z,101961.06
2023-04-02T10:00:31.919Z,101961.84
2023-04-02T10:03:07.223Z,101960.22
2023-04-02T10:08:15.869Z,101976.38
2023-04-02T10:10:46.720Z,101969.47
2023-04-02T10:13:26.184Z,101973.16
2023-04-02T10:16:05.689Z,101984.00
2023-04-02T10:19:22.665Z,101989.31
2023-04-02T10:21:50.118Z,101987.25
2023-04-02T10:24:17.699Z,101990.09
2023-04-02T10:27:02.428Z,101988.47
2023-04-02T10:29:42.828Z,101999.38
2023-04-02T10:33:03.200Z,102000.59
2023-04-02T10:36:01.642Z,101999.38
2023-04-02T10:38:34.138Z,102000.59
2023-04-02T10:41:12.790Z,102002.22
2023-04-02T10:44:12.691Z,102002.16
2023-04-02T10:47:14.832Z,102004.22
2023-04-02T10:50:15.663Z,102025.63
2023-04-02T10:52:52.521Z,102020.75
2023-04-02T10:55:25.061Z,102031.22
2023-04-02T10:57:54.051Z,102016.59
2023-04-02T11:00:35.051Z,102004.88
2023-04-02T11:03:27.113Z,102010.13
2023-04-02T11:05:57.617Z,102025.81
2023-04-02T11:08:29.515Z,102031.44
2023-04-02T11:11:11.553Z,102029.44
2023-04-02T11:13:55.362Z,102033.84
2023-04-02T11:16:22.739Z,102044.31
2023-04-02T11:19:17.225Z,102049.56
2023-04-02T11:22:06.067Z,102055.63
2023-04-02T11:24:44.087Z,102060.47
2023-04-02T11:27:27.549Z,102059.22
2023-04-02T11:30:07.650Z,102059.16
2023-04-02T11:32:36.497Z,102057.50
2023-04-02T11:35:20.708Z,102061.97
2023-04-02T11:37:47.350Z,102058.34
2023-04-02T11:40:13.980Z,102072.06
2023-04-02T11:42:46.083Z,102073.28
2023-04-02T11:45:26.003Z,102066.38
2023-04-02T11:48:01.586Z,102078.88
2023-04-02T11:50:34.739Z,102063.06
2023-04-02T11:53:11.407Z,102087.31
2023-04-02T11:55:39.692Z,102082.00
2023-04-02T11:58:30.305Z,102076.34
2023-04-02T12:01:07.852Z,102089.69
2023-04-02T12:04:01.050Z,102081.53
2023-04-02T12:06:46.706Z,102080.69
2023-04-02T12:09:22.414Z,102072.53
2023-04-02T12:11:52.573Z,102089.56
2023-04-02T12:14:45.823Z,102094.75
2023-04-02T12:17:21.417Z,102095.53
2023-04-02T12:19:55.629Z,102118.63
2023-04-02T12:22:28.871Z,102104.41
2023-04-02T12:25:00.990Z,102111.66
2023-04-02T12:27:29.487Z,102110.81
2023-04-02T12:30:12.463Z,102116.47
2023-04-02T12:32:38.925Z,102122.53
2023-04-02T12:35:37.021Z,102108.75
2023-04-02T12:38:03.445Z,102109.88
2023-04-02T12:40:29.905Z,102104.59
2023-04-02T12:42:56.308Z,102117.56
2023-04-02T12:45:29.693Z,102117.56
2023-04-02T12:47:57.928Z,102119.53
2023-04-02T12:50:24.792Z,102117.88
2023-04-02T12:52:54.911Z,102122.31
2023-04-02T12:55:24.596Z,102134.09
2023-04-02T12:57:59.037Z,102126.34
2023-04-02T13:00:25.496Z,102116.59
2023-04-02T13:03:00.971Z,102138.44
2023-04-02T13:05:50.095Z,102132.78
2023-04-02T13:08:19.715Z,102142.47
2023-04-02T13:10:53.558Z,102135.16
2023-04-02T13:13:28.246Z,102121.31
2023-04-02T13:16:09.730Z,102127.00
2023-04-02T13:18:38.161Z,102126.94
2023-04-02T13:21:21.201Z,102142.69
2023-04-02T13:23:48.227Z,102140.63
2023-04-02T13:26:31.728Z,102127.63
2023-04-02T13:29:11.201Z,102138.06
2023-04-02T13:31:37.831Z,102130.72
2023-04-02T13:34:04.249Z,102139.63
2023-04-02T13:36:30.726Z,102125.41
2023-04-02T13:38:57.453Z,102138.34
2023-04-02T13:41:29.481Z,102135.41
2023-04-02T13:44:00.001Z,102145.56
2023-04-02T13:46:29.757Z,102149.13
2023-04-02T13:48:57.687Z,102158.06
2023-04-02T13:51:37.174Z,102152.75
2023-04-02T13:54:08.514Z,102153.97
2023-04-02T13:56:34.944Z,102148.22
2023-04-02T13:59:01.403Z,102165.25
2023-04-02T14:01:28.307Z,102162.41
2023-04-02T14:03:56.747Z,102164.38
2023-04-02T14:06:52.283Z,102175.75
2023-04-02T14:09:29.824Z,102173.63
2023-04-02T14:12:13.243Z,102178.09
2023-04-02T14:14:50.597Z,102174.38
2023-04-02T14:17:47.338Z,102170.72
2023-04-02T14:20:25.953Z,102176.38
2023-04-02T14:23:06.810Z,102181.31
2023-04-02T14:26:01.058Z,102183.66
2023-04-02T14:28:49.299Z,102181.63
2023-04-02T14:31:31.523Z,102186.50
2023-04-02T14:34:19.801Z,102185.66
2023-04-02T14:37:04.562Z,102192.97
2023-04-02T14:39:45.789Z,102195.75
2023-04-02T14:42:16.520Z,102203.84
2023-04-02T14:44:50.236Z,102198.16
2023-04-02T14:47:25.725Z,102180.81
2023-04-02T14:49:57.080Z,102192.09
2023-04-02T14:52:26.709Z,102207.44
2023-04-02T14:55:03.430Z,102215.97
2023-04-02T14:57:33.296Z,102212.72
2023-04-02T15:00:05.813Z,102215.09
2023-04-02T15:02:44.742Z,102222.84
2023-04-02T15:05:33.112Z,102225.25
2023-04-02T15:08:19.827Z,102230.94
2023-04-02T15:11:10.664Z,102222.03
2023-04-02T15:13:42.198Z,102230.13
2023-04-02T15:16:19.584Z,102230.56
2023-04-02T15:18:51.053Z,102228.09
2023-04-02T15:21:23.072Z,102228.44
2023-04-02T15:24:04.452Z,102237.81
2023-04-02T15:26:51.917Z,102233.72
2023-04-02T15:29:49.245Z,102245.09
2023-04-02T15:32:35.970Z,102249.19
2023-04-02T15:35:24.911Z,102250.00
2023-04-02T15:38:22.966Z,102259.31
2023-04-02T15:41:01.756Z,102243.50
2023-04-02T15:43:31.780Z,102257.75
2023-04-02T15:46:36.348Z,102251.22
2023-04-02T15:49:08.957Z,102265.84
2023-04-02T15:51:44.908Z,102263.84
2023-04-02T15:54:30.637Z,102272.34
2023-04-02T15:57:16.446Z,102271.91
2023-04-02T16:00:02.759Z,102271.53
2023-04-02T16:02:58.316Z,102271.53
2023-04-02T16:05:52.871Z,102279.69
2023-04-02T16:08:33.406Z,102275.59
2023-04-02T16:10:59.927Z,102272.41
2023-04-02T16:13:29.427Z,102284.94
2023-04-02T16:16:08.183Z,102289.84
2023-04-02T16:18:34.573Z,102302.84
2023-04-02T16:21:02.882Z,102285.44
2023-04-02T16:23:38.302Z,102292.69
2023-04-02T16:26:29.864Z,102307.72
2023-04-02T16:29:54.628Z,102316.31
2023-04-02T16:32:41.045Z,102317.16
2023-04-02T16:35:42.734Z,102324.09
2023-04-02T16:38:43.731Z,102323.69
2023-04-02T16:41:33.572Z,102334.22
2023-04-02T16:44:07.951Z,102325.41
2023-04-02T16:46:40.304Z,102338.34
2023-04-02T16:49:09.842Z,102339.56
2023-04-02T16:51:52.193Z,102348.09
2023-04-02T16:54:45.924Z,102347.72
2023-04-02T16:57:29.776Z,102359.97
2023-04-02T17:00:12.397Z,102355.88
2023-04-02T17:02:47.853Z,102371.34
2023-04-02T17:05:33.212Z,102369.34
2023-04-02T17:08:21.292Z,102366.53
2023-04-02T17:10:55.076Z,102372.19
2023-04-02T17:13:52.795Z,102387.25
2023-04-02T17:16:36.667Z,102378.34
2023-04-02T17:19:09.593Z,102378.81
2023-04-02T17:21:38.079Z,102384.50
2023-04-02T17:24:17.195Z,102386.91
2023-04-02T17:26:47.498Z,102400.34
2023-04-02T17:29:27.078Z,102405.59
2023-04-02T17:32:01.365Z,102410.50
2023-04-02T17:34:28.246Z,102409.72
2023-04-02T17:37:20.069Z,102425.63
2023-04-02T17:40:08.422Z,102426.41
2023-04-02T17:42:54.820Z,102424.91
2023-04-02T17:45:39.124Z,102437.41
2023-04-02T17:48:08.746Z,102439.13
2023-04-02T17:50:51.942Z,102441.97
2023-04-02T17:53:33.070Z,102452.94
2023-04-02T17:56:19.908Z,102457.81
2023-04-02T17:59:23.725Z,102464.38
2023-04-02T18:02:00.890Z,102464.03
2023-04-02T18:04:48.812Z,102478.63
2023-04-02T18:07:36.868Z,102464.94
2023-04-02T18:10:27.863Z,102483.16
2023-04-02T18:13:07.612Z,102490.53
2023-04-02T18:15:50.348Z,102485.31
2023-04-02T18:18:41.076Z,102492.63
2023-04-02T18:21:32.769Z,102509.31
2023-04-02T18:24:21.411Z,102509.75
2023-04-02T18:27:00.975Z,102507.75
2023-04-02T18:29:39.548Z,102529.63
2023-04-02T18:32:27.350Z,102524.78
2023-04-02T18:35:07.873Z,102527.25
2023-04-02T18:38:12.673Z,102532.97
2023-04-02T18:40:57.661Z,102539.09
2023-04-02T18:43:46.938Z,102544.41
2023-04-02T18:46:32.421Z,102543.59
2023-04-02T18:49:05.424Z,102560.28
2023-04-02T18:51:36.672Z,102551.38
2023-04-02T18:54:17.830Z,102555.84
2023-04-02T18:56:44.511Z,102551.06
2023-04-02T18:59:37.999Z,102568.06
2023-04-02T19:02:44.270Z,102578.22
2023-04-02T19:05:36.853Z,102578.66
2023-04-02T19:08:47.827Z,102593.69
2023-04-02T19:11:20.279Z,102595.75
2023-04-02T19:13:48.872Z,102590.94
2023-04-02T19:16:58.812Z,102608.38
2023-04-02T19:19:27.455Z,102599.06
2023-04-02T19:22:09.048Z,102612.06
2023-04-02T19:25:13.818Z,102608.81
2023-04-02T19:27:59.943Z,102601.56
2023-04-02T19:30:53.837Z,102621.84
2023-04-02T19:33:32.501Z,102622.69
2023-04-02T19:36:31.877Z,102630.78
2023-04-02T19:39:16.735Z,102628.38
2023-04-02T19:41:49.548Z,102626.78
2023-04-02T19:44:17.015Z,102629.19
2023-04-02T19:46:44.637Z,102631.66
2023-04-02T19:49:14.567Z,102633.28
2023-04-02T19:51:41.111Z,102637.38
2023-04-02T19:54:07.576Z,102635.75
2023-04-02T19:56:34.298Z,102641.44
2023-04-02T19:59:07.831Z,102643.06
2023-04-02T20:01:43.406Z,102643.47
2023-04-02T20:04:09.910Z,102650.81
2023-04-02T20:06:37.491Z,102648.75
2023-04-02T20:09:04.170Z,102653.22
2023-04-02T20:11:30.938Z,102655.28
2023-04-02T20:13:57.377Z,102657.28
2023-04-02T20:16:23.930Z,102665.00
2023-04-02T20:18:51.315Z,102651.25
2023-04-02T20:21:17.771Z,102659.75
2023-04-02T20:23:44.450Z,102669.47
2023-04-02T20:26:11.655Z,102660.19
2023-04-02T20:28:38.167Z,102672.75
2023-04-02T20:31:06.058Z,102675.19
2023-04-02T20:33:32.765Z,102677.63
2023-04-02T20:36:06.218Z,102680.47
2023-04-02T20:38:33.300Z,102692.63
2023-04-02T20:41:00.744Z,102697.88
2023-04-02T20:43:28.390Z,102672.81
2023-04-02T20:46:08.337Z,102697.09
2023-04-02T20:48:37.629Z,102698.34
2023-04-02T20:51:06.964Z,102704.00
2023-04-02T20:53:35.281Z,102708.88
2023-04-02T20:56:13.655Z,102715.34
2023-04-02T20:58:40.869Z,102710.50
2023-04-02T21:01:37.533Z,102710.50
2023-04-02T21:04:04.378Z,102731.56
2023-04-02T21:06:34.109Z,102727.91
2023-04-02T21:09:03.212Z,102736.00
2023-04-02T21:11:29.673Z,102731.56
2023-04-02T21:13:56.198Z,102727.91
2023-04-02T21:16:31.969Z,102739.25
2023-04-02T21:19:02.590Z,102746.16
2023-04-02T21:21:29.416Z,102745.72
2023-04-02T21:23:59.334Z,102748.56
2023-04-02T21:26:26.942Z,102756.69
2023-04-02T21:28:53.685Z,102760.31
2023-04-02T21:31:22.957Z,102754.66
2023-04-02T21:33:52.449Z,102747.75
2023-04-02T21:36:24.626Z,102760.72
2023-04-02T21:39:02.596Z,102748.97
2023-04-02T21:41:32.179Z,102769.63
2023-04-02T21:44:00.886Z,102754.22
2023-04-02T21:46:29.398Z,102768.81
2023-04-02T21:48:57.992Z,102767.97
2023-04-02T21:51:26.681Z,102777.31
2023-04-02T21:53:54.182Z,102772.03
2023-04-02T21:56:28.601Z,102776.88
2023-04-02T21:58:56.873Z,102772.84
2023-04-02T22:01:27.967Z,102772.41
2023-04-02T22:04:00.553Z,102778.47
2023-04-02T22:06:29.646Z,102779.31
2023-04-02T22:08:59.026Z,102775.22
2023-04-02T22:11:28.254Z,102776.41
2023-04-02T22:13:55.036Z,102771.16
2023-04-02T22:16:24.544Z,102772.78
2023-04-02T22:18:53.660Z,102773.97
2023-04-02T22:21:20.443Z,102771.94
2023-04-02T22:23:47.047Z,102775.97
2023-04-02T22:26:14.886Z,102770.31
2023-04-02T22:28:41.830Z,102781.25
2023-04-02T22:31:20.161Z,102780.41
2023-04-02T22:33:47.206Z,102777.56
2023-04-02T22:36:17.153Z,102776.34
2023-04-02T22:38:44.027Z,102780.41
2023-04-02T22:41:19.468Z,102784.03
2023-04-02T22:43:46.178Z,102793.72
2023-04-02T22:46:14.416Z,102794.94
2023-04-02T22:48:41.060Z,102802.59
2023-04-02T22:51:09.009Z,102808.25
2023-04-02T22:53:36.604Z,102802.59
2023-04-02T22:56:06.614Z,102808.25
2023-04-02T22:58:33.651Z,102820.38
2023-04-02T23:01:28.387Z,102824.41
2023-04-02T23:03:55.892Z,102817.91
2023-04-02T23:06:23.593Z,102808.19
2023-04-02T23:08:50.405Z,102828.03
2023-04-02T23:11:21.853Z,102819.50
2023-04-02T23:13:50.355Z,102821.09
2023-04-02T23:16:18.159Z,102833.25
2023-04-02T23:18:47.923Z,102833.66
2023-04-02T23:21:15.036Z,102813.38
2023-04-02T23:23:41.731Z,102830.78
2023-04-02T23:26:17.266Z,102838.06
2023-04-02T23:28:44.331Z,102840.50
2023-04-02T23:31:14.143Z,102834.38
2023-04-02T23:33:40.839Z,102842.88
2023-04-02T23:36:28.006Z,102842.84
2023-04-02T23:38:56.643Z,102850.56
2023-04-02T23:41:26.643Z,102850.16
2023-04-02T23:43:54.150Z,102849.72
2023-04-02T23:46:20.923Z,102842.84
2023-04-02T23:48:50.501Z,102844.41
2023-04-02T23:51:17.452Z,102852.09
2023-04-02T23:53:43.949Z,102859.78
2023-04-02T23:56:10.971Z,102852.88
2023-04-02T23:58:37.810Z,102858.56
